Aérodrome :
LOGIN :

S'inscrire | Disclaimer

   EN    FR    IT 

 










Légende :    VFR   VFR Marginal   IFR   IFR Intensif   IFR Très Intensif
Visi : 
Plafond : 
>= 8 km
>= 3000ft
5 à 8 km
1000 à 3000 ft
1500m à 5 km
500 à 1000 ft
800 à 1500m
200 à 500 ft
< 800m
< 200 ft
Symboles :   Orages  Brouillard  Fortes neiges  Fortes précipitations  Vent > 20 kt
SIGMETs :   Divers  Orages  Givrage  Turbulence  Onde Orograph.  Cendres Volcan.







- Altitude de l'aérodrome : 374 ft
- Code IATA : LIS


LPPT - Lisboa Portela

DERNIER METAR :
  • 292100Z 26007KT 230V290 9999 FEW032 SCT045 14/07 Q1014

METARs EXPIRÉS :
  • 292030Z 25008KT 9999 FEW032 BKN042 14/07 Q1013
  • 292000Z 26008KT 9999 FEW035 SCT045 14/06 Q1013
  • 291930Z 27008KT 250V310 9999 FEW045 14/06 Q1013
  • 291900Z 28009KT 250V310 9999 FEW035 14/05 Q1013
  • 291830Z 27011KT 230V300 9999 FEW035 15/05 Q1013

TAF TAF LPPT
Valide du 29 à 18h jusqu'au 01 à 00h UTC


291700Z 2918/3024 29012KT 9999 FEW035
BECMG 2918/2921 26012KT FEW020 BKN040
BECMG 3000/3002 23012KT
TEMPO 3006/3010 23015G25KT 5000 RA SCT012 BKN018
BECMG 3010/3012 28015KT
BECMG 3015/3017 31012KT
Pas de NOTAMs connus pour ce terrain.



MET'MAP, la Météo Aéronautique d'un coup d'oeil ! - Copyright ORBIFLY Décembre 2007 - Disclaimer

ORBIFLY MET'MAP TEAM :

Programmation & Développement : Alexandra Zaïnal
Conception & Développement : Baudouin d'Aumeries
Co-Programmation & Développement : Marc-Olivier Méhu
Soutien technique & logistique : Manuel Goepfert

Contact : metmap@orbifly.com




SOURCES & CREDITS :

   NOAA